Flight Track Log - Related Links

Times and Time Zones

All times are in EDT time to prevent confusion due to time zone crossing. See the ABX2230 flight status page for this flight to view local times or setup timezone preferences in your user account.

Time Position Orientation Groundspeed Altitude Reporting Facility
EDT Latitude Longitude Course Direction KTS MPH feet Rate Location/Type
Sun 03:46:41 PM 18.7572 -70.1289 332° Northwest 462 532 17,600  Level Miami Center
Sun 03:47:41 PM 18.8703 -70.1936 332° Northwest 462 532 19,100 2,000 Climbing Miami Center
Sun 03:48:41 PM 18.9828 -70.2475 336° Northwest 457 526 21,600 1,900 Climbing Miami Center
Sun 03:49:41 PM 19.0903 -70.3300 324° Northwest 463 533 22,900 1,200 Climbing Miami Center
Sun 03:50:41 PM 19.2094 -70.3947 333° Northwest 473 544 24,000 1,200 Climbing Miami Center
Sun 03:51:41 PM 19.3292 -70.4725 328° Northwest 488 562 25,300 1,750 Climbing Miami Center
Sun 03:52:41 PM 19.4508 -70.5461 330° Northwest 501 577 27,500 2,150 Climbing Miami Center
Sun 03:53:41 PM 19.5683 -70.6200 329° Northwest 501 577 29,600 1,950 Climbing Miami Center
Sun 03:54:41 PM 19.6853 -70.6850 332° Northwest 495 570 31,400 1,600 Climbing Miami Center
Sun 03:55:41 PM 19.8006 -70.7572 329° Northwest 495 570 32,800 1,500 Climbing Miami Center
Sun 03:56:41 PM 19.9200 -70.8269 331° Northwest 488 562 34,400 1,550 Climbing Miami Center
Sun 03:57:41 PM 20.0353 -70.8989 330° Northwest 488 562 35,900 800 Climbing Miami Center
Sun 03:58:41 PM 20.1525 -70.9667 332° Northwest 483 556 36,000 50 Climbing Miami Center
Sun 03:59:41 PM 20.2697 -71.0369 331° Northwest 483 556 36,000  Level Miami Center
Sun 04:00:41 PM 20.3869 -71.1069 331° Northwest 478 550 36,000  Level Miami Center
Sun 04:01:41 PM 20.4719 -71.2075 312° West 451 519 36,000  Level Miami Center
Sun 04:02:41 PM 20.5428 -71.3197 304° West 457 526 36,000  Level Miami Center
Sun 04:03:41 PM 20.6175 -71.4339 305° West 463 533 36,000  Level Miami Center
Sun 04:04:41 PM 20.6883 -71.5508 303° West 463 533 36,000  Level Miami Center
Sun 04:05:41 PM 20.7611 -71.6656 304° West 468 539 36,000  Level Miami Center
Sun 04:06:41 PM 20.8250 -71.7675 304° West 468 539 36,000  Level Miami Center
Sun 04:07:41 PM 20.8997 -71.8844 304° West 468 539 36,000  Level Miami Center
Sun 04:08:41 PM 20.9722 -72.0039 303° West 468 539 36,000  Level Miami Center
Sun 04:09:41 PM 21.0447 -72.1192 304° West 468 539 36,000  Level Miami Center
Sun 04:10:41 PM 21.1172 -72.2367 303° West 468 539 36,000  Level Miami Center
Sun 04:11:41 PM 21.1894 -72.3519 304° West 468 539 36,000  Level Miami Center
Sun 04:12:41 PM 21.2617 -72.4697 303° West 473 544 36,000  Level Miami Center
Sun 04:13:41 PM 21.3339 -72.5856 304° West 473 544 36,000  Level Miami Center
Sun 04:14:41 PM 21.4058 -72.7014 304° West 473 544 36,000  Level Miami Center
Sun 04:15:41 PM 21.4778 -72.8194 303° West 473 544 36,000  Level Miami Center
Sun 04:16:41 PM 21.5478 -72.9356 303° West 473 544 36,000  Level Miami Center
Sun 04:17:41 PM 21.6175 -73.0519 303° West 473 544 36,000  Level Miami Center
Sun 04:18:41 PM 21.6850 -73.1661 302° West 462 532 36,000  Level Miami Center
Sun 04:19:41 PM 21.7567 -73.2825 304° West 462 532 36,000  Level Miami Center
Sun 04:20:41 PM 21.8261 -73.4014 302° West 467 537 36,000  Level Miami Center
Sun 04:21:41 PM 21.8956 -73.5181 303° West 467 537 36,000  Level Miami Center
Sun 04:22:41 PM 21.9650 -73.6372 302° West 467 537 36,000  Level Miami Center
Sun 04:23:41 PM 22.0303 -73.7700 298° West 461 531 36,000  Level Miami Center
Sun 04:24:41 PM 22.1036 -73.8869 304° West 461 531 36,000  Level Miami Center
Sun 04:25:41 PM 22.1747 -74.0089 302° West 467 537 36,000  Level Miami Center
Sun 04:26:41 PM 22.2458 -74.1283 303° West 472 543 36,000  Level Miami Center
Sun 04:27:41 PM 22.3150 -74.2481 302° West 472 543 36,000  Level Miami Center
Sun 04:28:41 PM 22.3900 -74.3703 304° West 472 543 36,000  Level Miami Center
Sun 04:29:41 PM 22.4608 -74.4878 303° West 472 543 36,000  Level Miami Center
Sun 04:30:41 PM 22.5317 -74.6125 302° West 472 543 36,000  Level Miami Center
Sun 04:31:41 PM 22.6067 -74.7306 305° West 472 543 36,000  Level Miami Center
Sun 04:32:41 PM 22.6750 -74.8553 301° West 477 549 36,000  Level Miami Center
Sun 04:33:41 PM 22.7478 -74.9758 303° West 477 549 36,000 650 Level Miami Center
Sun 04:34:41 PM 22.8203 -75.0942 304° West 477 549 37,300 1,000 Climbing Miami Center
Sun 04:35:41 PM 22.8883 -75.2150 301° West 477 549 38,000 350 Climbing Miami Center
Sun 04:36:41 PM 22.9586 -75.3339 303° West 477 549 38,000  Level Miami Center
Sun 04:37:41 PM 23.0286 -75.4547 302° West 477 549 38,000  Level Miami Center
Sun 04:38:41 PM 23.0903 -75.5603 302° West 477 549 38,000  Level Miami Center
Sun 04:39:41 PM 23.1603 -75.6794 303° West 477 549 38,000  Level Miami Center
Sun 04:40:41 PM 23.2281 -75.8031 301° West 472 543 38,000  Level Miami Center
Sun 04:41:41 PM 23.2978 -75.9269 302° West 472 543 38,000  Level Miami Center
Sun 04:42:41 PM 23.3694 -76.0464 303° West 472 543 38,000  Level Miami Center
Sun 04:43:41 PM 23.4392 -76.1706 301° West 472 543 38,000  Level Miami Center
Sun 04:44:41 PM 23.5086 -76.2903 302° West 472 543 38,000  Level Miami Center
Sun 04:45:41 PM 23.5781 -76.4100 302° West 472 543 38,000  Level Miami Center
Sun 04:46:41 PM 23.6450 -76.5300 301° West 472 543 38,000  Level Miami Center
Sun 04:47:41 PM 23.7144 -76.6500 302° West 472 543 38,000  Level Miami Center
Sun 04:48:41 PM 23.7897 -76.7817 302° West 472 543 38,000  Level Miami Center
Sun 04:49:41 PM 23.8544 -76.8997 301° West 467 537 38,000  Level Miami Center
Sun 04:50:41 PM 23.9192 -77.0133 302° West 456 525 38,000  Level Miami Center
Sun 04:51:41 PM 23.9858 -77.1294 302° West 450 518 38,000  Level Miami Center
Sun 04:52:41 PM 24.0483 -77.2458 300° West 450 518 38,000  Level Miami Center
Sun 04:53:41 PM 24.1150 -77.3667 301° West 450 518 38,000  Level Miami Center
Sun 04:54:41 PM 24.1792 -77.4831 301° West 455 524 38,000  Level Miami Center
Sun 04:55:41 PM 24.2478 -77.6019 302° West 455 524 38,000  Level Miami Center
Sun 04:56:41 PM 24.3139 -77.7231 301° West 455 524 38,000  Level Miami Center
Sun 04:57:41 PM 24.3800 -77.8444 301° West 455 524 38,000  Level Miami Center
Sun 04:58:41 PM 24.4419 -77.9636 300° West 455 524 38,000  Level Miami Center
Sun 04:59:41 PM 24.5078 -78.0831 301° West 462 532 38,000  Level Miami Center
Sun 05:00:41 PM 24.5717 -78.2003 301° West 457 526 38,000  Level Miami Center
Sun 05:01:41 PM 24.6333 -78.3175 300° West 452 520 38,000  Level Miami Center
Sun 05:02:41 PM 24.6989 -78.4347 302° West 452 520 38,000  Level Miami Center
Sun 05:03:41 PM 24.7603 -78.5522 300° West 452 520 38,000 -950 Level Miami Center
Sun 05:04:41 PM 24.8236 -78.6700 301° West 452 520 36,100 -1,000 Descending Miami Center
Sun 05:05:41 PM 24.8911 -78.7878 302° West 452 520 36,000 -50 Descending Miami Center
Sun 05:06:41 PM 24.9542 -78.9125 299° West 452 520 36,000 -1,000 Level Miami Center
Sun 05:07:41 PM 25.0111 -79.0211 300° West 458 527 34,000 -2,350 Descending Miami Center
Sun 05:08:41 PM 25.0342 -79.1547 281° West 448 516 31,300 -2,500 Descending Miami Center
Sun 05:09:41 PM 25.0697 -79.2839 287° West 448 516 29,000 -2,350 Descending Miami Center
Sun 05:10:41 PM 25.1733 -79.3433 333° Northwest 387 445 26,600 -2,400 Descending Miami Center
Sun 05:11:41 PM 25.2881 -79.3525 356° North 377 434 24,200 -2,450 Descending Miami Center
Sun 05:12:41 PM 25.3986 -79.3639 355° North 388 447 21,700 -3,000 Descending Miami Center
Sun 05:13:41 PM 25.4919 -79.4097 336° Northwest 388 447 18,200 -2,500 Descending Miami Center
Sun 05:14:41 PM 25.4794 -79.5197 263° West 285 328 16,700 -2,250 Descending Miami Center
Sun 05:15:41 PM 25.4381 -79.6200 245° Southwest 295 339 13,700 -2,588 Descending Miami Center
Sun 05:16:23 PM 25.4050 -79.7022 246° West 343 395 12,300 -1,529 Descending Miami Center
Sun 05:17:23 PM 25.4197 -79.8039 279° West 339 390 11,100 -984 Descending Miami Center
Sun 05:18:25 PM 25.4386 -79.9078 281° West 340 391 10,300 -488 Descending Miami Center
Sun 05:19:26 PM 25.4850 -79.9872 303° West 311 358 10,100 -344 Descending Miami Center
Sun 05:20:27 PM 25.5483 -80.0442 321° Northwest 273 314 9,600 -738 Descending Miami Center
Sun 05:21:28 PM 25.6078 -80.0964 322° Northwest 258 297 8,600 -787 Descending Miami Center
Sun 05:22:29 PM 25.6569 -80.1506 315° West 246 283 8,000 -295 Descending Miami Center
Sun 05:23:30 PM 25.6697 -80.2247 281° West 250 288 8,000 -439 Level Miami Center
Sun 05:24:32 PM 25.6869 -80.3014 284° West 249 287 7,100 -1,031 Descending Miami Center
Sun 05:25:38 PM 25.6828 -80.3819 267° West 242 278 5,800 -1,181 Descending Miami Center
Sun 05:26:39 PM 25.6831 -80.4603 270° West 238 274 4,600 -1,190 Descending Miami Center
Sun 05:27:34 PM 25.7347 -80.4803 341° North 230 265 3,500 -1,309 Descending Miami Center
Sun 05:28:29 PM 25.7753 -80.4444 39° Northeast 212 244 2,200 -1,190 Descending Miami Center
Sun 05:29:30 PM 25.7789 -80.3825 86° East 184 212 1,200 -885 Descending Miami Center
Sun 05:30:31 PM 25.7819 -80.3386 86° East 132 152 400 -787 Descending Miami Center
Sun 05:32:00 PM 25.7833 -80.2833 77° East  Level FlightAware Approximate
Sun 05:39:00 PM 25.7954 -80.2901 77° East  Level Estimated

Login

Don't have an account? Register now (free) for customized features, flight alerts, and more!